createdAt,value
2023-04-05T00:01:13.698Z,98.50
2023-04-05T00:03:41.238Z,98.50
2023-04-05T00:06:08.190Z,98.50
2023-04-05T00:08:34.857Z,98.50
2023-04-05T00:11:01.533Z,98.50
2023-04-05T00:13:28.232Z,98.50
2023-04-05T00:15:58.146Z,98.60
2023-04-05T00:18:25.773Z,98.60
2023-04-05T00:20:53.505Z,98.60
2023-04-05T00:23:25.600Z,98.70
2023-04-05T00:25:52.495Z,98.80
2023-04-05T00:28:19.219Z,98.80
2023-04-05T00:30:45.961Z,98.80
2023-04-05T00:33:13.770Z,98.80
2023-04-05T00:35:40.693Z,98.90
2023-04-05T00:38:07.559Z,99.00
2023-04-05T00:40:34.405Z,99.10
2023-04-05T00:43:01.114Z,99.10
2023-04-05T00:45:28.439Z,99.10
2023-04-05T00:47:55.947Z,99.30
2023-04-05T00:50:23.267Z,99.40
2023-04-05T00:52:50.861Z,99.40
2023-04-05T00:55:17.849Z,99.50
2023-04-05T00:57:45.229Z,99.50
2023-04-05T01:00:12.444Z,99.60
2023-04-05T01:02:48.493Z,99.60
2023-04-05T01:05:36.305Z,99.60
2023-04-05T01:08:17.990Z,99.60
2023-04-05T01:10:51.329Z,99.50
2023-04-05T01:13:18.042Z,99.50
2023-04-05T01:15:45.157Z,99.60
2023-04-05T01:18:13.966Z,99.80
2023-04-05T01:20:52.873Z,99.90
2023-04-05T01:23:59.791Z,99.90
2023-04-05T01:26:32.309Z,99.90
2023-04-05T01:29:17.707Z,99.90
2023-04-05T01:31:56.350Z,99.90
2023-04-05T01:34:44.737Z,99.90
2023-04-05T01:37:18.292Z,99.90
2023-04-05T01:39:50.708Z,99.90
2023-04-05T01:42:24.573Z,99.90
2023-04-05T01:44:55.469Z,99.90
2023-04-05T01:47:22.355Z,99.90
2023-04-05T01:49:49.114Z,99.90
2023-04-05T01:52:15.916Z,99.90
2023-04-05T01:54:42.603Z,99.90
2023-04-05T01:57:09.343Z,99.90
2023-04-05T01:59:36.194Z,99.90
2023-04-05T02:02:02.953Z,99.90
2023-04-05T02:04:29.661Z,99.90
2023-04-05T02:06:56.379Z,99.90
2023-04-05T02:09:23.045Z,99.90
2023-04-05T02:11:49.869Z,99.90
2023-04-05T02:14:17.164Z,99.90
2023-04-05T02:16:44.890Z,99.90
2023-04-05T02:19:13.187Z,99.90
2023-04-05T02:21:40.928Z,99.90
2023-04-05T02:24:08.018Z,99.90
2023-04-05T02:26:34.768Z,99.90
2023-04-05T02:29:01.485Z,99.90
2023-04-05T02:31:28.259Z,99.90
2023-04-05T02:33:56.041Z,99.90
2023-04-05T02:36:22.775Z,99.90
2023-04-05T02:38:49.621Z,99.90
2023-04-05T02:41:16.411Z,99.90
2023-04-05T02:43:43.169Z,99.90
2023-04-05T02:46:09.986Z,99.90
2023-04-05T02:48:37.286Z,99.90
2023-04-05T02:51:04.073Z,99.90
2023-04-05T02:53:31.049Z,99.90
2023-04-05T02:55:58.155Z,99.90
2023-04-05T02:58:24.913Z,99.90
2023-04-05T03:00:54.276Z,99.90
2023-04-05T03:03:22.388Z,99.90
2023-04-05T03:05:56.810Z,99.90
2023-04-05T03:08:23.667Z,99.90
2023-04-05T03:10:54.934Z,99.90
2023-04-05T03:13:21.605Z,99.90
2023-04-05T03:15:48.332Z,99.90
2023-04-05T03:18:16.540Z,99.90
2023-04-05T03:20:43.343Z,99.90
2023-04-05T03:23:10.465Z,99.90
2023-04-05T03:25:38.026Z,99.90
2023-04-05T03:28:06.413Z,99.90
2023-04-05T03:30:33.523Z,99.90
2023-04-05T03:33:04.388Z,99.90
2023-04-05T03:35:31.214Z,99.90
2023-04-05T03:37:57.937Z,99.90
2023-04-05T03:40:24.913Z,99.90
2023-04-05T03:42:51.869Z,99.90
2023-04-05T03:45:23.275Z,99.90
2023-04-05T03:47:51.307Z,99.90
2023-04-05T03:50:18.096Z,99.90
2023-04-05T03:52:45.151Z,99.90
2023-04-05T03:55:13.469Z,99.90
2023-04-05T03:57:41.690Z,99.90
2023-04-05T04:00:17.745Z,99.90
2023-04-05T04:02:46.219Z,99.90
2023-04-05T04:05:14.347Z,99.90
2023-04-05T04:07:42.741Z,99.90
2023-04-05T04:10:11.098Z,99.90
2023-04-05T04:12:38.298Z,99.90
2023-04-05T04:15:05.773Z,99.90
2023-04-05T04:17:35.550Z,99.90
2023-04-05T04:20:07.784Z,99.90
2023-04-05T04:22:38.761Z,99.90
2023-04-05T04:25:10.295Z,99.90
2023-04-05T04:27:46.728Z,99.90
2023-04-05T04:30:15.022Z,99.90
2023-04-05T04:32:55.361Z,99.90
2023-04-05T04:35:29.616Z,99.90
2023-04-05T04:37:58.353Z,99.90
2023-04-05T04:40:38.520Z,99.90
2023-04-05T04:43:10.498Z,99.90
2023-04-05T04:45:37.989Z,99.90
2023-04-05T04:48:05.281Z,99.90
2023-04-05T04:50:32.665Z,99.90
2023-04-05T04:53:01.773Z,99.90
2023-04-05T04:55:29.013Z,99.90
2023-04-05T04:57:56.322Z,99.90
2023-04-05T05:00:24.039Z,99.90
2023-04-05T05:02:52.528Z,99.90
2023-04-05T05:05:23.178Z,99.90
2023-04-05T05:07:50.677Z,99.90
2023-04-05T05:10:18.746Z,99.90
2023-04-05T05:12:45.637Z,99.90
2023-04-05T05:15:12.739Z,99.90
2023-04-05T05:17:39.697Z,99.90
2023-04-05T05:20:10.877Z,99.90
2023-04-05T05:22:38.776Z,99.90
2023-04-05T05:25:07.117Z,99.90
2023-04-05T05:27:33.997Z,99.90
2023-04-05T05:30:01.223Z,99.90
2023-04-05T05:32:28.067Z,99.90
2023-04-05T05:34:54.849Z,99.90
2023-04-05T05:37:29.782Z,99.90
2023-04-05T05:39:56.578Z,99.90
2023-04-05T05:42:23.721Z,99.90
2023-04-05T05:44:50.667Z,99.90
2023-04-05T05:47:17.379Z,99.90
2023-04-05T05:49:44.093Z,99.90
2023-04-05T05:52:11.060Z,99.90
2023-04-05T05:54:37.750Z,99.90
2023-04-05T05:57:05.011Z,99.90
2023-04-05T05:59:31.808Z,99.90
2023-04-05T06:01:58.652Z,99.90
2023-04-05T06:04:25.737Z,99.90
2023-04-05T06:06:52.528Z,99.90
2023-04-05T06:09:19.238Z,99.90
2023-04-05T06:11:55.938Z,99.90
2023-04-05T06:14:25.317Z,99.90
2023-04-05T06:16:52.294Z,99.90
2023-04-05T06:19:19.190Z,99.90
2023-04-05T06:21:45.894Z,99.90
2023-04-05T06:24:12.724Z,99.90
2023-04-05T06:26:39.484Z,99.90
2023-04-05T06:29:06.315Z,99.90
2023-04-05T06:31:35.602Z,99.90
2023-04-05T06:34:02.989Z,99.90
2023-04-05T06:36:34.169Z,99.90
2023-04-05T06:39:01.295Z,99.90
2023-04-05T06:41:28.206Z,99.90
2023-04-05T06:43:56.099Z,99.90
2023-04-05T06:46:23.648Z,99.90
2023-04-05T06:48:51.606Z,99.90
2023-04-05T06:51:19.865Z,99.90
2023-04-05T06:53:46.681Z,99.90
2023-04-05T06:56:13.535Z,99.90
2023-04-05T06:58:40.441Z,99.90
2023-04-05T07:01:07.574Z,99.90
2023-04-05T07:03:34.326Z,99.90
2023-04-05T07:06:01.620Z,99.90
2023-04-05T07:08:31.149Z,99.90
2023-04-05T07:10:58.178Z,99.90
2023-04-05T07:13:25.690Z,99.90
2023-04-05T07:15:59.429Z,99.90
2023-04-05T07:18:26.193Z,99.90
2023-04-05T07:20:54.731Z,99.90
2023-04-05T07:23:22.612Z,99.90
2023-04-05T07:25:50.138Z,99.90
2023-04-05T07:28:16.886Z,99.90
2023-04-05T07:30:43.885Z,99.90
2023-04-05T07:33:11.075Z,99.90
2023-04-05T07:35:37.856Z,99.90
2023-04-05T07:38:04.667Z,99.90
2023-04-05T07:40:31.481Z,99.90
2023-04-05T07:42:58.215Z,99.90
2023-04-05T07:45:25.311Z,99.90
2023-04-05T07:47:52.127Z,99.90
2023-04-05T07:50:18.997Z,99.90
2023-04-05T07:52:45.752Z,99.90
2023-04-05T07:55:12.505Z,99.90
2023-04-05T07:57:39.313Z,99.90
2023-04-05T08:00:12.098Z,99.90
2023-04-05T08:02:39.167Z,99.90
2023-04-05T08:05:06.311Z,99.90
2023-04-05T08:07:33.095Z,99.70
2023-04-05T08:10:00.196Z,99.50
2023-04-05T08:12:29.853Z,99.30
2023-04-05T08:14:56.573Z,99.40
2023-04-05T08:17:27.006Z,98.90
2023-04-05T08:19:54.476Z,98.60
2023-04-05T08:22:21.496Z,98.30
2023-04-05T08:24:48.240Z,98.10
2023-04-05T08:27:14.967Z,97.80
2023-04-05T08:29:41.747Z,97.50
2023-04-05T08:32:09.021Z,97.30
2023-04-05T08:34:36.098Z,97.10
2023-04-05T08:37:02.887Z,96.80
2023-04-05T08:39:29.843Z,96.50
2023-04-05T08:42:15.338Z,96.20
2023-04-05T08:44:44.197Z,95.60
2023-04-05T08:47:15.126Z,95.40
2023-04-05T08:49:45.988Z,95.00
2023-04-05T08:52:12.863Z,94.80
2023-04-05T08:54:39.660Z,94.50
2023-04-05T08:57:07.639Z,94.20
2023-04-05T08:59:38.038Z,93.90
2023-04-05T09:02:12.124Z,93.50
2023-04-05T09:04:45.145Z,93.10
2023-04-05T09:07:14.244Z,92.80
2023-04-05T09:09:46.344Z,92.50
2023-04-05T09:12:14.352Z,92.10
2023-04-05T09:14:41.565Z,91.60
2023-04-05T09:17:09.443Z,91.40
2023-04-05T09:19:36.307Z,91.30
2023-04-05T09:22:03.014Z,91.10
2023-04-05T09:24:43.331Z,90.90
2023-04-05T09:27:15.060Z,90.10
2023-04-05T09:29:51.602Z,89.70
2023-04-05T09:32:21.123Z,89.50
2023-04-05T09:34:48.194Z,88.90
2023-04-05T09:37:19.885Z,88.60
2023-04-05T09:39:47.412Z,87.60
2023-04-05T09:42:16.229Z,88.10
2023-04-05T09:44:57.056Z,87.50
2023-04-05T09:47:27.645Z,86.40
2023-04-05T09:49:54.633Z,86.00
2023-04-05T09:52:23.390Z,85.40
2023-04-05T09:54:53.110Z,84.40
2023-04-05T09:57:19.884Z,83.70
2023-04-05T09:59:47.705Z,83.40
2023-04-05T10:02:15.573Z,81.50
2023-04-05T10:04:44.727Z,80.00
2023-04-05T10:07:13.790Z,78.90
2023-04-05T10:09:41.597Z,79.30
2023-04-05T10:12:10.031Z,79.40
2023-04-05T10:14:37.601Z,78.60
2023-04-05T10:17:36.967Z,77.40
2023-04-05T10:20:14.117Z,76.40
2023-04-05T10:22:41.061Z,75.90
2023-04-05T10:25:29.914Z,75.80
2023-04-05T10:28:05.095Z,75.60
2023-04-05T10:30:38.265Z,73.50
2023-04-05T10:33:19.781Z,72.70
2023-04-05T10:35:55.496Z,74.00
2023-04-05T10:38:28.640Z,73.10
2023-04-05T10:41:02.482Z,73.00
2023-04-05T10:43:30.729Z,72.80
2023-04-05T10:45:59.178Z,72.00
2023-04-05T10:48:37.966Z,71.90
2023-04-05T10:51:05.629Z,71.50
2023-04-05T10:53:33.802Z,71.40
2023-04-05T10:56:02.034Z,71.20
2023-04-05T10:58:30.677Z,70.40
2023-04-05T11:00:57.959Z,69.20
2023-04-05T11:03:50.149Z,67.50
2023-04-05T11:06:28.927Z,67.90
2023-04-05T11:08:57.455Z,67.60
2023-04-05T11:11:25.190Z,68.10
2023-04-05T11:13:54.201Z,68.00
2023-04-05T11:16:21.806Z,67.30
2023-04-05T11:18:52.410Z,66.40
2023-04-05T11:21:22.415Z,66.10
2023-04-05T11:24:08.850Z,64.30
2023-04-05T11:26:54.948Z,63.10
2023-04-05T11:29:50.740Z,62.50
2023-04-05T11:32:17.959Z,62.40
2023-04-05T11:34:47.146Z,62.90
2023-04-05T11:37:16.013Z,61.30
2023-04-05T11:39:42.819Z,60.30
2023-04-05T11:42:13.025Z,60.30
2023-04-05T11:44:48.185Z,61.20
2023-04-05T11:47:21.549Z,61.80
2023-04-05T11:49:51.997Z,61.30
2023-04-05T11:52:20.827Z,59.90
2023-04-05T11:54:48.966Z,59.70
2023-04-05T11:57:23.571Z,59.80
2023-04-05T11:59:52.056Z,59.70
2023-04-05T12:02:19.521Z,59.70
2023-04-05T12:04:55.312Z,60.20
2023-04-05T12:07:25.266Z,59.90
2023-04-05T12:10:13.761Z,60.50
2023-04-05T12:12:43.580Z,61.20
2023-04-05T12:15:14.496Z,60.60
2023-04-05T12:17:47.150Z,60.60
2023-04-05T12:20:19.479Z,59.20
2023-04-05T12:22:48.744Z,59.00
2023-04-05T12:25:16.693Z,58.70
2023-04-05T12:27:43.966Z,59.10
2023-04-05T12:30:21.273Z,59.80
2023-04-05T12:32:50.589Z,60.80
2023-04-05T12:35:35.128Z,59.50
2023-04-05T12:38:05.714Z,57.90
2023-04-05T12:40:34.862Z,57.70
2023-04-05T12:43:06.430Z,57.90
2023-04-05T12:45:40.342Z,58.50
2023-04-05T12:48:13.083Z,59.10
2023-04-05T12:50:48.652Z,59.30
2023-04-05T12:53:21.391Z,59.10
2023-04-05T12:55:52.682Z,59.70
2023-04-05T12:58:32.233Z,59.30
2023-04-05T13:03:27.105Z,58.00
2023-04-05T13:05:54.050Z,58.50
2023-04-05T13:08:20.871Z,58.30
2023-04-05T13:10:49.382Z,58.40
2023-04-05T13:13:17.429Z,57.60
2023-04-05T13:15:45.385Z,57.50
2023-04-05T13:18:14.799Z,57.40
2023-04-05T13:20:44.804Z,56.70
2023-04-05T13:23:12.826Z,57.30
2023-04-05T13:25:40.610Z,57.30
2023-04-05T13:28:07.961Z,56.70
2023-04-05T13:30:34.793Z,57.30
2023-04-05T13:33:01.686Z,57.90
2023-04-05T13:35:28.593Z,58.20
2023-04-05T13:37:55.702Z,58.50
2023-04-05T13:40:22.473Z,58.70
2023-04-05T13:42:49.262Z,58.40
2023-04-05T13:45:16.136Z,57.90
2023-04-05T13:47:43.198Z,58.10
2023-04-05T13:50:10.237Z,58.60
2023-04-05T13:52:37.654Z,58.60
2023-04-05T13:55:04.977Z,57.60
2023-04-05T13:57:32.216Z,56.50
2023-04-05T13:59:59.066Z,56.40
2023-04-05T14:02:27.109Z,55.80
2023-04-05T14:04:54.368Z,54.60
2023-04-05T14:07:21.942Z,55.00
2023-04-05T14:09:48.831Z,55.20
2023-04-05T14:12:15.627Z,55.10
2023-04-05T14:14:42.452Z,55.00
2023-04-05T14:17:11.481Z,54.80
2023-04-05T14:19:39.229Z,55.00
2023-04-05T14:22:06.009Z,54.60
2023-04-05T14:24:32.788Z,54.40
2023-04-05T14:26:59.496Z,54.00
2023-04-05T14:29:26.846Z,52.90
2023-04-05T14:31:56.115Z,52.90
2023-04-05T14:34:23.005Z,53.00
2023-04-05T14:36:49.860Z,53.00
2023-04-05T14:39:16.634Z,53.10
2023-04-05T14:41:45.850Z,51.90
2023-04-05T14:44:12.588Z,51.90
2023-04-05T14:46:39.322Z,52.10
2023-04-05T14:49:06.112Z,53.00
2023-04-05T14:51:32.827Z,51.90
2023-04-05T14:53:59.583Z,52.10
2023-04-05T14:56:26.391Z,52.10
2023-04-05T14:58:53.310Z,52.20
2023-04-05T15:01:20.184Z,51.70
2023-04-05T15:03:48.333Z,51.10
2023-04-05T15:06:16.302Z,51.10
2023-04-05T15:08:43.076Z,51.40
2023-04-05T15:11:09.879Z,51.70
2023-04-05T15:13:36.789Z,51.40
2023-04-05T15:16:03.643Z,50.80
2023-04-05T15:18:30.402Z,50.70
2023-04-05T15:20:57.341Z,50.30
2023-04-05T15:23:24.264Z,49.70
2023-04-05T15:25:51.061Z,50.40
2023-04-05T15:28:17.808Z,51.70
2023-04-05T15:30:45.839Z,53.10
2023-04-05T15:33:12.591Z,53.80
2023-04-05T15:35:39.399Z,54.40
2023-04-05T15:38:06.427Z,54.90
2023-04-05T15:40:33.243Z,56.00
2023-04-05T15:43:00.207Z,56.60
2023-04-05T15:45:27.132Z,56.90
2023-04-05T15:47:53.923Z,57.00
2023-04-05T15:50:21.736Z,57.20
2023-04-05T15:52:48.568Z,57.50
2023-04-05T15:55:15.505Z,57.90
2023-04-05T15:57:42.297Z,58.10
2023-04-05T16:00:09.688Z,58.60
2023-04-05T16:02:38.008Z,59.30
2023-04-05T16:05:05.285Z,59.70
2023-04-05T16:07:32.032Z,59.70
2023-04-05T16:09:58.864Z,60.00
2023-04-05T16:12:25.844Z,60.60
2023-04-05T16:14:52.612Z,61.00
2023-04-05T16:17:19.520Z,61.30
2023-04-05T16:19:46.306Z,61.70
2023-04-05T16:22:13.285Z,62.50
2023-04-05T16:24:40.106Z,63.30
2023-04-05T16:27:06.867Z,63.80
2023-04-05T16:29:33.582Z,63.50
2023-04-05T16:32:00.588Z,63.30
2023-04-05T16:34:27.537Z,63.60
2023-04-05T16:36:54.285Z,63.80
2023-04-05T16:39:21.002Z,64.20
2023-04-05T16:41:47.766Z,64.60
2023-04-05T16:44:14.521Z,64.80
2023-04-05T16:46:41.331Z,65.00
2023-04-05T16:49:08.144Z,65.00
2023-04-05T16:51:36.271Z,65.40
2023-04-05T16:54:03.334Z,65.30
2023-04-05T16:56:30.446Z,65.20
2023-04-05T16:58:57.607Z,65.20
2023-04-05T17:01:24.660Z,65.50
2023-04-05T17:03:51.475Z,65.70
2023-04-05T17:06:18.245Z,65.80
2023-04-05T17:08:44.973Z,66.10
2023-04-05T17:11:11.799Z,66.30
2023-04-05T17:13:38.650Z,66.60
2023-04-05T17:16:05.699Z,67.10
2023-04-05T17:18:32.576Z,67.20
2023-04-05T17:20:59.321Z,67.20
2023-04-05T17:23:26.089Z,67.40
2023-04-05T17:25:52.869Z,68.10
2023-04-05T17:28:19.659Z,67.60
2023-04-05T17:30:46.776Z,67.60
2023-04-05T17:33:13.581Z,67.90
2023-04-05T17:35:40.414Z,68.00
2023-04-05T17:38:07.229Z,68.10
2023-04-05T17:40:34.020Z,68.10
2023-04-05T17:43:00.853Z,68.30
2023-04-05T17:45:28.513Z,68.80
2023-04-05T17:47:55.402Z,69.20
2023-04-05T17:50:24.436Z,69.40
2023-04-05T17:52:51.653Z,69.60
2023-04-05T17:55:18.388Z,70.00
2023-04-05T17:57:45.147Z,70.40
2023-04-05T18:00:12.635Z,71.20
2023-04-05T18:02:40.788Z,71.90
2023-04-05T18:05:08.357Z,72.30
2023-04-05T18:07:36.927Z,73.20
2023-04-05T18:10:07.607Z,73.60
2023-04-05T18:12:34.792Z,73.60
2023-04-05T18:15:01.564Z,74.20
2023-04-05T18:17:28.467Z,75.10
2023-04-05T18:19:55.338Z,76.10
2023-04-05T18:22:22.270Z,76.80
2023-04-05T18:24:49.066Z,77.50
2023-04-05T18:27:16.025Z,78.40
2023-04-05T18:29:42.854Z,79.10
2023-04-05T18:32:09.912Z,79.70
2023-04-05T18:34:36.804Z,80.30
2023-04-05T18:37:04.097Z,81.70
2023-04-05T18:39:30.855Z,81.70
2023-04-05T18:41:57.656Z,82.20
2023-04-05T18:44:24.456Z,82.50
2023-04-05T18:46:51.500Z,82.60
2023-04-05T18:49:19.134Z,83.70
2023-04-05T18:51:46.258Z,84.70
2023-04-05T18:54:13.914Z,85.00
2023-04-05T18:56:41.028Z,85.70
2023-04-05T18:59:08.185Z,86.80
2023-04-05T19:01:35.601Z,87.70
2023-04-05T19:04:02.464Z,88.30
2023-04-05T19:06:29.950Z,88.40
2023-04-05T19:08:56.726Z,88.30
2023-04-05T19:11:23.521Z,88.40
2023-04-05T19:13:50.768Z,88.80
2023-04-05T19:16:17.827Z,89.50
2023-04-05T19:18:44.837Z,90.00
2023-04-05T19:21:11.696Z,90.00
2023-04-05T19:23:38.799Z,90.10
2023-04-05T19:26:05.801Z,90.20
2023-04-05T19:28:32.529Z,90.10
2023-04-05T19:30:59.373Z,90.40
2023-04-05T19:33:26.259Z,90.00
2023-04-05T19:35:53.076Z,90.00
2023-04-05T19:38:22.920Z,90.00
2023-04-05T19:40:49.786Z,90.30
2023-04-05T19:43:17.617Z,90.60
2023-04-05T19:45:44.607Z,90.80
2023-04-05T19:48:39.952Z,91.00
2023-04-05T19:51:11.589Z,91.00
2023-04-05T19:53:48.063Z,91.10
2023-04-05T19:56:18.486Z,91.10
2023-04-05T19:58:46.808Z,91.10
2023-04-05T20:01:32.466Z,91.30
2023-04-05T20:03:59.853Z,91.60
2023-04-05T20:06:27.946Z,91.70
2023-04-05T20:09:01.638Z,92.00
2023-04-05T20:11:28.547Z,92.20
2023-04-05T20:13:57.080Z,92.20
2023-04-05T20:16:28.066Z,92.30
2023-04-05T20:19:03.223Z,92.20
2023-04-05T20:21:30.968Z,92.20
2023-04-05T20:23:58.340Z,92.20
2023-04-05T20:26:31.177Z,92.20
2023-04-05T20:29:01.058Z,92.10
2023-04-05T20:31:31.850Z,92.20
2023-04-05T20:34:04.312Z,92.30
2023-04-05T20:36:33.205Z,92.30
2023-04-05T20:39:01.411Z,92.40
2023-04-05T20:41:28.606Z,92.70
2023-04-05T20:43:56.546Z,92.80
2023-04-05T20:46:24.080Z,93.00
2023-04-05T20:48:51.128Z,93.20
2023-04-05T20:51:17.993Z,93.30
2023-04-05T20:53:44.702Z,93.40
2023-04-05T20:56:12.098Z,93.50
2023-04-05T20:58:40.629Z,93.60
2023-04-05T21:01:08.372Z,93.70
2023-04-05T21:03:38.350Z,93.70
2023-04-05T21:06:08.111Z,93.80
2023-04-05T21:08:36.302Z,93.80
2023-04-05T21:11:03.291Z,93.80
2023-04-05T21:13:30.312Z,93.90
2023-04-05T21:15:57.916Z,94.00
2023-04-05T21:18:25.611Z,94.00
2023-04-05T21:20:53.388Z,94.10
2023-04-05T21:23:22.519Z,94.10
2023-04-05T21:25:49.950Z,94.20
2023-04-05T21:28:16.821Z,94.40
2023-04-05T21:30:44.468Z,94.40
2023-04-05T21:33:12.093Z,94.50
2023-04-05T21:35:39.237Z,94.60
2023-04-05T21:38:06.449Z,94.80
2023-04-05T21:40:33.400Z,94.90
2023-04-05T21:43:00.802Z,94.90
2023-04-05T21:45:27.662Z,95.00
2023-04-05T21:47:54.941Z,95.00
2023-04-05T21:50:21.840Z,95.00
2023-04-05T21:52:48.683Z,95.10
2023-04-05T21:55:15.805Z,95.10
2023-04-05T21:57:42.607Z,95.20
2023-04-05T22:00:12.584Z,95.30
2023-04-05T22:02:39.796Z,95.40
2023-04-05T22:05:07.833Z,95.40
2023-04-05T22:07:35.876Z,95.50
2023-04-05T22:10:02.982Z,95.50
2023-04-05T22:12:29.874Z,95.50
2023-04-05T22:14:56.738Z,95.50
2023-04-05T22:17:23.655Z,95.60
2023-04-05T22:19:50.564Z,95.70
2023-04-05T22:22:17.713Z,95.70
2023-04-05T22:24:44.958Z,95.70
2023-04-05T22:27:12.352Z,95.80
2023-04-05T22:29:39.591Z,95.80
2023-04-05T22:32:07.021Z,95.70
2023-04-05T22:34:33.906Z,95.80
2023-04-05T22:37:01.023Z,95.80
2023-04-05T22:39:27.872Z,95.90
2023-04-05T22:41:55.065Z,96.00
2023-04-05T22:44:22.069Z,95.90
2023-04-05T22:46:48.816Z,96.00
2023-04-05T22:49:15.559Z,96.00
2023-04-05T22:51:42.288Z,96.10
2023-04-05T22:54:09.067Z,96.10
2023-04-05T22:56:36.015Z,96.30
2023-04-05T22:59:02.751Z,96.30
2023-04-05T23:01:29.544Z,96.40
2023-04-05T23:03:56.506Z,96.50
2023-04-05T23:06:23.337Z,96.60
2023-04-05T23:08:50.443Z,96.70
2023-04-05T23:11:17.195Z,96.80
2023-04-05T23:13:44.142Z,96.90
2023-04-05T23:16:10.936Z,96.90
2023-04-05T23:18:37.748Z,97.00
2023-04-05T23:21:04.712Z,97.00
2023-04-05T23:23:31.455Z,97.10
2023-04-05T23:25:58.200Z,97.10
2023-04-05T23:28:24.891Z,97.10
2023-04-05T23:30:51.681Z,97.10
2023-04-05T23:33:18.426Z,97.20
2023-04-05T23:35:45.841Z,97.30
2023-04-05T23:38:12.658Z,97.30
2023-04-05T23:40:39.416Z,97.30
2023-04-05T23:43:06.432Z,97.30
2023-04-05T23:45:33.161Z,97.30
2023-04-05T23:47:59.970Z,97.30
2023-04-05T23:50:26.775Z,97.30
2023-04-05T23:52:53.563Z,97.30
2023-04-05T23:55:21.483Z,97.30
2023-04-05T23:57:48.358Z,97.40
